Time;durP1;ratioP1;P1;durP2;ratioP2;P2;SDS_P1;SDS_P2;PMS_P1;PMS_P2;Temp;Humidity;BMP_temperature;BMP_pressure;BME280_temperature;BME280_humidity;BME280_pressure;Samples;Min_cycle;Max_cycle;Signal;HPM_P1;HPM_P2
2023/02/24 00:01:36;;;;;;;11.40;7.90;;;;;;;;;;5070216;28;20449;-70
2023/02/24 00:04:07;;;;;;;10.10;7.00;;;;;;;;;;5069827;28;20453;-70
2023/02/24 00:06:36;;;;;;;11.17;7.07;;;;;;;;;;5070452;28;21017;-69
2023/02/24 00:09:05;;;;;;;14.77;7.10;;;;;;;;;;5069629;28;20700;-70
2023/02/24 00:11:32;;;;;;;11.07;7.30;;;;;;;;;;5070356;28;20449;-70
2023/02/24 00:13:59;;;;;;;15.57;7.83;;;;;;;;;;5069719;28;20445;-69
2023/02/24 00:16:26;;;;;;;10.50;6.67;;;;;;;;;;5069921;28;20461;-69
2023/02/24 00:18:53;;;;;;;13.30;7.00;;;;;;;;;;5069328;28;20939;-69
2023/02/24 00:21:22;;;;;;;14.20;6.37;;;;;;;;;;5070464;28;20433;-70
2023/02/24 00:23:49;;;;;;;10.50;5.67;;;;;;;;;;5069623;28;20440;-69
2023/02/24 00:26:17;;;;;;;15.07;7.77;;;;;;;;;;5070135;28;20488;-70
2023/02/24 00:28:44;;;;;;;11.97;7.00;;;;;;;;;;5069453;28;20441;-69
2023/02/24 00:31:14;;;;;;;14.60;7.63;;;;;;;;;;5070061;28;20448;-68
2023/02/24 00:33:42;;;;;;;10.63;6.37;;;;;;;;;;5070422;28;20437;-69
2023/02/24 00:36:10;;;;;;;11.20;7.27;;;;;;;;;;5070287;28;20446;-69
2023/02/24 00:38:39;;;;;;;10.80;6.43;;;;;;;;;;5069847;28;20438;-68
2023/02/24 00:41:13;;;;;;;14.90;8.00;;;;;;;;;;5070514;28;20445;-69
2023/02/24 00:43:45;;;;;;;14.13;7.97;;;;;;;;;;5073482;28;20913;-68
2023/02/24 00:46:12;;;;;;;10.40;6.37;;;;;;;;;;5073869;28;20511;-69
2023/02/24 00:48:40;;;;;;;12.43;7.10;;;;;;;;;;5073324;28;20800;-69
2023/02/24 00:51:09;;;;;;;11.13;6.67;;;;;;;;;;5072982;28;20437;-69
2023/02/24 00:53:37;;;;;;;11.70;7.73;;;;;;;;;;5073414;28;20524;-68
2023/02/24 00:56:06;;;;;;;11.23;7.07;;;;;;;;;;5072776;28;20515;-69
2023/02/24 00:58:34;;;;;;;13.60;7.87;;;;;;;;;;5074632;28;20437;-69
2023/02/24 01:01:03;;;;;;;9.70;7.20;;;;;;;;;;5072515;28;20513;-69
2023/02/24 01:03:31;;;;;;;12.20;7.53;;;;;;;;;;5072924;28;20990;-69
2023/02/24 01:06:01;;;;;;;10.90;7.30;;;;;;;;;;5072364;28;20924;-70
2023/02/24 01:08:28;;;;;;;20.13;8.57;;;;;;;;;;5072656;28;20433;-69
2023/02/24 01:12:16;;;;;;;13.90;7.10;;;;;;;;;;5072517;28;20437;-69
2023/02/24 01:13:45;;;;;;;15.97;7.00;;;;;;;;;;5072261;28;20578;-69
2023/02/24 01:16:13;;;;;;;12.00;7.20;;;;;;;;;;5072753;28;20971;-69
2023/02/24 01:18:41;;;;;;;15.13;8.17;;;;;;;;;;5072747;28;20445;-69
2023/02/24 01:21:08;;;;;;;10.63;7.70;;;;;;;;;;5072766;28;20963;-69
2023/02/24 01:23:35;;;;;;;12.27;8.27;;;;;;;;;;5072981;28;20442;-69
2023/02/24 01:26:03;;;;;;;16.10;10.00;;;;;;;;;;5072239;28;20783;-69
2023/02/24 01:28:30;;;;;;;19.27;10.13;;;;;;;;;;5072678;28;20433;-69
2023/02/24 01:31:03;;;;;;;13.60;9.23;;;;;;;;;;5071881;28;20935;-69
2023/02/24 01:33:32;;;;;;;18.03;9.13;;;;;;;;;;5072631;28;20479;-69
2023/02/24 01:36:08;;;;;;;12.93;9.17;;;;;;;;;;5071575;28;21011;-70
2023/02/24 01:38:36;;;;;;;14.80;8.00;;;;;;;;;;5072047;28;20444;-69
2023/02/24 01:41:04;;;;;;;13.03;9.00;;;;;;;;;;5071208;28;20789;-69
2023/02/24 01:43:32;;;;;;;14.50;10.57;;;;;;;;;;5072093;28;20472;-69
2023/02/24 01:45:59;;;;;;;17.67;10.40;;;;;;;;;;5071222;28;20456;-69
2023/02/24 01:48:29;;;;;;;13.90;8.30;;;;;;;;;;5071552;28;20438;-68
2023/02/24 01:50:57;;;;;;;17.53;9.20;;;;;;;;;;5071779;28;20457;-69
2023/02/24 01:53:24;;;;;;;13.70;8.10;;;;;;;;;;5071852;28;20449;-68
2023/02/24 01:55:53;;;;;;;13.43;8.40;;;;;;;;;;5071216;28;20953;-68
2023/02/24 01:58:22;;;;;;;16.20;9.27;;;;;;;;;;5071345;28;20445;-68
2023/02/24 02:00:50;;;;;;;10.87;8.33;;;;;;;;;;5060700;28;20466;-68
2023/02/24 02:03:24;;;;;;;12.70;7.87;;;;;;;;;;5069847;28;20476;-68
2023/02/24 02:05:53;;;;;;;12.50;8.40;;;;;;;;;;5071553;28;20438;-69
2023/02/24 02:08:20;;;;;;;12.83;7.83;;;;;;;;;;5071109;28;20473;-68
2023/02/24 02:10:48;;;;;;;15.17;9.10;;;;;;;;;;5071069;28;20442;-68
2023/02/24 02:13:19;;;;;;;14.03;8.57;;;;;;;;;;5071537;28;20464;-69
2023/02/24 02:15:55;;;;;;;16.13;10.57;;;;;;;;;;5070703;28;20910;-68
2023/02/24 02:18:27;;;;;;;15.63;8.20;;;;;;;;;;5070874;28;20556;-68
2023/02/24 02:21:28;;;;;;;11.40;8.37;;;;;;;;;;5070532;28;20441;-69
2023/02/24 02:24:04;;;;;;;12.27;9.50;;;;;;;;;;5070793;28;20430;-69
2023/02/24 02:26:46;;;;;;;13.43;8.90;;;;;;;;;;5070710;28;20985;-69
2023/02/24 02:29:31;;;;;;;14.43;8.77;;;;;;;;;;5071229;28;20502;-68
2023/02/24 02:32:11;;;;;;;17.43;8.20;;;;;;;;;;5070337;28;20794;-68
2023/02/24 02:34:45;;;;;;;18.40;9.00;;;;;;;;;;5060156;28;20460;-68
2023/02/24 02:37:14;;;;;;;14.73;7.80;;;;;;;;;;5070775;28;20828;-68
2023/02/24 02:39:45;;;;;;;14.13;8.00;;;;;;;;;;5071376;28;20446;-69
2023/02/24 02:42:19;;;;;;;15.93;10.60;;;;;;;;;;5070684;28;20929;-68
2023/02/24 02:44:54;;;;;;;17.40;8.80;;;;;;;;;;5062887;28;20465;-68
2023/02/24 02:47:24;;;;;;;13.87;8.50;;;;;;;;;;5070097;28;20473;-68
2023/02/24 02:49:55;;;;;;;13.10;8.37;;;;;;;;;;5070120;28;20920;-67
2023/02/24 02:52:26;;;;;;;14.10;7.67;;;;;;;;;;5071030;28;20445;-68
2023/02/24 02:54:55;;;;;;;17.50;10.37;;;;;;;;;;5070639;28;20444;-68
2023/02/24 02:57:25;;;;;;;11.30;7.30;;;;;;;;;;5069965;28;20928;-69
2023/02/24 02:59:55;;;;;;;18.53;8.47;;;;;;;;;;5070470;28;20473;-68
2023/02/24 03:02:27;;;;;;;16.00;8.07;;;;;;;;;;5070987;28;20445;-68
2023/02/24 03:04:57;;;;;;;13.90;8.77;;;;;;;;;;5069767;28;20579;-68
2023/02/24 03:07:29;;;;;;;13.90;9.33;;;;;;;;;;5070326;28;20481;-69
2023/02/24 03:09:58;;;;;;;12.23;9.00;;;;;;;;;;5070330;28;20430;-68
2023/02/24 03:12:27;;;;;;;15.80;11.17;;;;;;;;;;5070747;28;20942;-68
2023/02/24 03:14:57;;;;;;;12.43;7.20;;;;;;;;;;5070410;28;20437;-68
2023/02/24 03:17:25;;;;;;;12.53;7.57;;;;;;;;;;5070765;28;21047;-68
2023/02/24 03:19:54;;;;;;;14.77;8.60;;;;;;;;;;5070409;28;20540;-68
2023/02/24 03:22:26;;;;;;;18.90;9.80;;;;;;;;;;5070818;28;20433;-68
2023/02/24 03:24:54;;;;;;;18.37;10.77;;;;;;;;;;5070471;28;20441;-68
2023/02/24 03:27:24;;;;;;;15.10;9.47;;;;;;;;;;5070206;28;20473;-68
2023/02/24 03:29:53;;;;;;;14.00;9.60;;;;;;;;;;5070376;28;20483;-68
2023/02/24 03:32:22;;;;;;;16.30;8.37;;;;;;;;;;5070801;28;20447;-68
2023/02/24 03:34:51;;;;;;;18.13;10.53;;;;;;;;;;5070149;28;20448;-68
2023/02/24 03:37:24;;;;;;;15.87;9.20;;;;;;;;;;5070045;28;20446;-69
2023/02/24 03:39:53;;;;;;;18.03;10.47;;;;;;;;;;5070002;28;20916;-68
2023/02/24 03:42:21;;;;;;;19.40;11.43;;;;;;;;;;5069645;28;20458;-68
2023/02/24 03:44:49;;;;;;;14.90;9.00;;;;;;;;;;5069706;28;20449;-68
2023/02/24 03:47:19;;;;;;;15.90;11.40;;;;;;;;;;5069794;28;20489;-68
2023/02/24 03:49:46;;;;;;;18.43;10.20;;;;;;;;;;5070085;28;20764;-68
2023/02/24 03:52:23;;;;;;;15.67;9.80;;;;;;;;;;5070563;28;20437;-68
2023/02/24 03:55:00;;;;;;;18.17;9.90;;;;;;;;;;5069678;28;20929;-68
2023/02/24 03:57:53;;;;;;;19.73;10.30;;;;;;;;;;5070146;28;20530;-68
2023/02/24 04:00:25;;;;;;;14.03;8.33;;;;;;;;;;5075958;28;20818;-68
2023/02/24 04:02:56;;;;;;;12.37;7.00;;;;;;;;;;5069891;28;20444;-68
2023/02/24 04:05:26;;;;;;;16.37;8.03;;;;;;;;;;5070448;28;20830;-68
2023/02/24 04:07:55;;;;;;;14.67;7.97;;;;;;;;;;5069264;28;20845;-68
2023/02/24 04:10:27;;;;;;;17.00;10.33;;;;;;;;;;5070637;28;20765;-68
2023/02/24 04:12:56;;;;;;;10.60;8.30;;;;;;;;;;5069791;28;20451;-68
2023/02/24 04:15:28;;;;;;;17.47;9.77;;;;;;;;;;5070484;28;20916;-68
2023/02/24 04:17:56;;;;;;;11.70;9.03;;;;;;;;;;5073277;28;20433;-69
2023/02/24 04:20:28;;;;;;;17.83;9.00;;;;;;;;;;5074003;28;20981;-68
2023/02/24 04:22:58;;;;;;;14.90;8.70;;;;;;;;;;5073714;28;20540;-70
2023/02/24 04:25:27;;;;;;;13.43;9.60;;;;;;;;;;5073833;28;20447;-68
2023/02/24 04:27:57;;;;;;;15.17;9.03;;;;;;;;;;5072396;28;20476;-68
2023/02/24 04:30:26;;;;;;;14.70;10.40;;;;;;;;;;5073836;28;20939;-68
2023/02/24 04:32:55;;;;;;;24.37;11.27;;;;;;;;;;5073563;28;20445;-69
2023/02/24 04:35:22;;;;;;;23.27;12.37;;;;;;;;;;5073871;28;20437;-68
2023/02/24 04:37:49;;;;;;;23.10;11.67;;;;;;;;;;5073009;28;20441;-68
2023/02/24 04:40:20;;;;;;;20.43;11.03;;;;;;;;;;5073750;28;20445;-68
2023/02/24 04:42:50;;;;;;;19.27;10.07;;;;;;;;;;5072861;28;20985;-68
2023/02/24 04:45:20;;;;;;;17.20;9.63;;;;;;;;;;5073595;28;20433;-68
2023/02/24 04:47:50;;;;;;;21.27;13.97;;;;;;;;;;5073086;28;20477;-68
2023/02/24 04:50:22;;;;;;;17.27;10.07;;;;;;;;;;5073823;28;20483;-68
2023/02/24 04:52:50;;;;;;;18.70;11.37;;;;;;;;;;5072894;28;20913;-68
2023/02/24 04:55:18;;;;;;;18.33;11.27;;;;;;;;;;5073835;28;20437;-69
2023/02/24 04:57:46;;;;;;;20.53;12.63;;;;;;;;;;5073034;28;20452;-68
2023/02/24 05:00:21;;;;;;;29.50;12.90;;;;;;;;;;5074145;28;20437;-68
2023/02/24 05:02:49;;;;;;;21.80;12.00;;;;;;;;;;5073498;28;20433;-69
2023/02/24 05:05:16;;;;;;;21.73;12.70;;;;;;;;;;5073397;28;20529;-68
2023/02/24 05:07:46;;;;;;;24.67;12.07;;;;;;;;;;5072881;28;20477;-67
2023/02/24 05:10:14;;;;;;;24.43;13.10;;;;;;;;;;5060840;28;20452;-68
2023/02/24 05:12:41;;;;;;;21.13;11.33;;;;;;;;;;5073352;28;20437;-69
2023/02/24 05:15:09;;;;;;;20.43;10.03;;;;;;;;;;5074256;28;20475;-69
2023/02/24 05:17:37;;;;;;;24.30;10.30;;;;;;;;;;5073456;28;20480;-70
2023/02/24 05:22:51;;;;;;;20.20;10.57;;;;;;;;;;5072263;28;20425;-68
2023/02/24 05:25:18;;;;;;;15.70;10.00;;;;;;;;;;5073006;28;20808;-68
2023/02/24 05:27:46;;;;;;;21.93;11.63;;;;;;;;;;5071244;28;20481;-68
2023/02/24 05:30:13;;;;;;;20.40;10.27;;;;;;;;;;5072788;28;20623;-68
2023/02/24 05:32:42;;;;;;;18.30;11.10;;;;;;;;;;5072501;28;20448;-68
2023/02/24 05:35:10;;;;;;;23.63;12.53;;;;;;;;;;5073010;28;20438;-68
2023/02/24 05:37:40;;;;;;;21.73;11.30;;;;;;;;;;5072267;28;20450;-68
2023/02/24 05:40:12;;;;;;;22.73;11.17;;;;;;;;;;5072415;28;20437;-68
2023/02/24 05:42:39;;;;;;;23.43;13.80;;;;;;;;;;5059619;28;20488;-69
2023/02/24 05:45:07;;;;;;;28.97;11.43;;;;;;;;;;5071578;28;20450;-68
2023/02/24 05:47:35;;;;;;;33.53;12.90;;;;;;;;;;5072224;28;20481;-68
2023/02/24 05:50:04;;;;;;;25.83;12.70;;;;;;;;;;5071965;28;20898;-68
2023/02/24 05:52:34;;;;;;;18.07;9.80;;;;;;;;;;5072440;28;20438;-68
2023/02/24 05:55:05;;;;;;;28.60;13.40;;;;;;;;;;5071459;28;20946;-68
2023/02/24 05:57:34;;;;;;;25.10;13.07;;;;;;;;;;5072044;28;20449;-70
2023/02/24 06:00:09;;;;;;;21.07;11.53;;;;;;;;;;5071302;28;20471;-68
2023/02/24 06:02:37;;;;;;;28.37;12.37;;;;;;;;;;5072476;28;20433;-68
2023/02/24 06:05:07;;;;;;;24.67;11.47;;;;;;;;;;5071534;28;20453;-68
2023/02/24 06:07:35;;;;;;;19.00;11.20;;;;;;;;;;5071981;28;20514;-68
2023/02/24 06:10:03;;;;;;;24.10;12.07;;;;;;;;;;5071552;28;20856;-68
2023/02/24 06:12:32;;;;;;;24.20;11.50;;;;;;;;;;5072251;28;20438;-68
2023/02/24 06:14:59;;;;;;;24.13;11.17;;;;;;;;;;5071563;28;20477;-68
2023/02/24 06:17:27;;;;;;;24.03;12.73;;;;;;;;;;5071724;28;20469;-68
2023/02/24 06:19:54;;;;;;;24.67;12.67;;;;;;;;;;5070845;28;20441;-70
2023/02/24 06:22:24;;;;;;;24.80;11.60;;;;;;;;;;5071214;28;20465;-68
2023/02/24 06:24:52;;;;;;;28.13;12.00;;;;;;;;;;5071176;28;20453;-68
2023/02/24 06:27:23;;;;;;;22.80;10.63;;;;;;;;;;5071112;28;20442;-68
2023/02/24 06:29:51;;;;;;;21.10;11.97;;;;;;;;;;5071021;28;20426;-68
2023/02/24 06:32:18;;;;;;;25.83;13.53;;;;;;;;;;5071394;28;20913;-69
2023/02/24 06:34:46;;;;;;;32.70;13.17;;;;;;;;;;5071408;28;20449;-68
2023/02/24 06:37:13;;;;;;;19.80;10.57;;;;;;;;;;5070970;28;20944;-69
2023/02/24 06:39:42;;;;;;;21.93;11.63;;;;;;;;;;5070919;28;20449;-69
2023/02/24 06:42:10;;;;;;;22.17;11.10;;;;;;;;;;5070647;28;20441;-69
2023/02/24 06:44:38;;;;;;;20.87;12.33;;;;;;;;;;5070938;28;20510;-68
2023/02/24 06:47:06;;;;;;;31.83;14.93;;;;;;;;;;5070564;28;20460;-69
2023/02/24 06:49:33;;;;;;;26.23;13.77;;;;;;;;;;5071193;28;20484;-68
2023/02/24 06:52:02;;;;;;;24.60;12.10;;;;;;;;;;5070008;28;20449;-69
2023/02/24 06:54:29;;;;;;;24.60;12.83;;;;;;;;;;5070778;28;20442;-68
2023/02/24 06:56:59;;;;;;;27.20;15.57;;;;;;;;;;5068075;28;20934;-69
2023/02/24 06:59:27;;;;;;;28.60;12.50;;;;;;;;;;5071069;28;20452;-68
2023/02/24 07:01:55;;;;;;;23.90;12.97;;;;;;;;;;5069690;28;20454;-68
2023/02/24 07:04:23;;;;;;;24.27;13.33;;;;;;;;;;5071175;28;20883;-69
2023/02/24 07:06:51;;;;;;;28.37;13.13;;;;;;;;;;5070294;28;20524;-69
2023/02/24 07:09:20;;;;;;;28.00;14.07;;;;;;;;;;5071336;28;20519;-69
2023/02/24 07:11:50;;;;;;;22.03;10.47;;;;;;;;;;5070646;28;20438;-69
2023/02/24 07:14:20;;;;;;;29.17;14.47;;;;;;;;;;5070814;28;20438;-69
2023/02/24 07:16:52;;;;;;;21.00;11.53;;;;;;;;;;5070002;28;20484;-69
2023/02/24 07:19:20;;;;;;;22.90;12.70;;;;;;;;;;5071217;28;20440;-69
2023/02/24 07:21:49;;;;;;;33.87;15.63;;;;;;;;;;5070657;28;20473;-69
2023/02/24 07:24:23;;;;;;;25.77;12.03;;;;;;;;;;5070752;28;20532;-69
2023/02/24 07:26:55;;;;;;;27.07;12.27;;;;;;;;;;5070346;28;20429;-68
2023/02/24 07:29:23;;;;;;;27.13;13.60;;;;;;;;;;5073617;28;20461;-69
2023/02/24 07:31:53;;;;;;;29.47;12.93;;;;;;;;;;5078771;28;20445;-71
2023/02/24 07:34:23;;;;;;;29.03;13.60;;;;;;;;;;5071130;28;20790;-69
2023/02/24 07:36:50;;;;;;;31.23;12.30;;;;;;;;;;5067215;28;20437;-69
2023/02/24 07:39:18;;;;;;;31.23;13.83;;;;;;;;;;5070366;28;20445;-70
2023/02/24 07:41:48;;;;;;;28.17;12.80;;;;;;;;;;5069850;28;20437;-70
2023/02/24 07:44:15;;;;;;;30.77;15.27;;;;;;;;;;5070315;28;20480;-70
2023/02/24 07:46:44;;;;;;;30.03;15.90;;;;;;;;;;5069866;28;20909;-68
2023/02/24 07:49:13;;;;;;;26.40;14.10;;;;;;;;;;5070871;28;20481;-69
2023/02/24 07:51:41;;;;;;;25.23;11.67;;;;;;;;;;5074925;28;20444;-68
2023/02/24 07:54:10;;;;;;;28.37;14.50;;;;;;;;;;5074918;28;20449;-67
2023/02/24 07:56:44;;;;;;;26.40;12.70;;;;;;;;;;5073787;28;20441;-71
2023/02/24 07:59:14;;;;;;;29.40;14.10;;;;;;;;;;5073366;28;20441;-70
2023/02/24 08:01:48;;;;;;;31.77;15.07;;;;;;;;;;5072342;28;20827;-71
2023/02/24 08:04:17;;;;;;;25.97;11.80;;;;;;;;;;5074748;28;20789;-70
2023/02/24 08:06:45;;;;;;;26.73;11.70;;;;;;;;;;5072941;28;20452;-70
2023/02/24 08:09:17;;;;;;;19.23;11.40;;;;;;;;;;5073367;28;20468;-70
2023/02/24 08:11:48;;;;;;;26.57;13.17;;;;;;;;;;5073670;28;20442;-70
2023/02/24 08:14:15;;;;;;;28.03;12.13;;;;;;;;;;5074297;28;20455;-70
2023/02/24 08:16:42;;;;;;;21.50;10.57;;;;;;;;;;5072606;28;20473;-71
2023/02/24 08:19:11;;;;;;;21.60;11.60;;;;;;;;;;5072901;28;20442;-70
2023/02/24 08:21:46;;;;;;;25.23;10.37;;;;;;;;;;5074425;28;20475;-71
2023/02/24 08:24:16;;;;;;;22.17;10.40;;;;;;;;;;5073729;28;20932;-70
2023/02/24 08:26:44;;;;;;;26.10;12.17;;;;;;;;;;5072982;28;20438;-68
2023/02/24 08:29:11;;;;;;;28.07;13.40;;;;;;;;;;5073578;28;20477;-71
2023/02/24 08:31:39;;;;;;;19.70;9.70;;;;;;;;;;5073392;28;20589;-70
2023/02/24 08:34:06;;;;;;;19.63;11.33;;;;;;;;;;5072428;28;20441;-70
2023/02/24 08:36:33;;;;;;;24.47;12.83;;;;;;;;;;5073265;28;20566;-70
2023/02/24 08:39:02;;;;;;;22.57;10.67;;;;;;;;;;5072536;28;20445;-70
2023/02/24 08:44:29;;;;;;;21.80;12.43;;;;;;;;;;5088249;28;20569;-71
2023/02/24 08:46:59;;;;;;;19.80;9.60;;;;;;;;;;5086505;28;20498;-69
2023/02/24 08:49:27;;;;;;;21.57;11.30;;;;;;;;;;5087829;28;20940;-71
2023/02/24 08:51:54;;;;;;;22.30;11.20;;;;;;;;;;5087537;28;20448;-71
2023/02/24 08:54:25;;;;;;;18.37;10.13;;;11.70;12.60;;;;;;5087881;28;20924;-71
2023/02/24 08:56:54;;;;;;;20.00;10.27;;;10.80;99.90;;;;;;5087317;28;20445;-71
2023/02/24 08:59:37;;;;;;;18.90;10.60;;;10.80;56.90;;;;;;5087835;28;20491;-71
2023/02/24 09:02:26;;;;;;;14.27;8.37;;;10.90;99.90;;;;;;5082564;28;20448;-70
2023/02/24 09:04:55;;;;;;;15.27;9.13;;;10.80;99.90;;;;;;5086266;28;20562;-70
2023/02/24 09:07:24;;;;;;;15.83;8.93;;;10.80;99.90;;;;;;5086109;28;20441;-71
2023/02/24 09:09:55;;;;;;;17.43;9.40;;;10.80;19.40;;;;;;5086373;28;20768;-71
2023/02/24 09:12:24;;;;;;;18.20;8.10;;;10.90;1.00;;;;;;5086991;28;20557;-69
2023/02/24 09:14:54;;;;;;;15.23;7.57;;;11.00;1.00;;;;;;5086971;28;20449;-72
2023/02/24 09:20:54;;;;;;;12.97;7.10;;;10.90;1.00;;;;;;5076948;28;20428;-71
2023/02/24 09:23:04;;;;;;;12.00;8.07;;;10.90;1.00;;;;;;5086431;28;20805;-71
2023/02/24 09:25:43;;;;;;;13.37;6.80;;;11.10;1.00;;;;;;5086745;28;20852;-70
2023/02/24 09:28:15;;;;;;;11.07;7.70;;;11.20;1.00;;;;;;5087650;28;20428;-71
2023/02/24 09:30:52;;;;;;;15.20;6.80;;;11.20;99.90;;;;;;5087715;28;20483;-70
2023/02/24 09:33:22;;;;;;;8.13;5.43;;;11.10;1.00;;;;;;5087734;28;20468;-70
2023/02/24 09:36:09;;;;;;;10.23;6.00;;;11.00;83.50;;;;;;5086363;28;20429;-70
2023/02/24 09:41:56;;;;;;;13.90;4.97;;;11.00;1.00;;;;;;5136420;27;20297;-71
2023/02/24 09:44:32;;;;;;;9.07;5.13;;;11.00;1.00;;;;;;5106750;28;20543;-72
2023/02/24 09:47:07;;;;;;;4.70;3.83;;;11.20;99.90;;;;;;5106046;28;20443;-70
2023/02/24 09:49:45;;;;;;;13.33;5.73;;;11.20;1.00;;;;;;5107010;28;20447;-70
2023/02/24 09:52:16;;;;;;;9.53;4.50;;;11.20;1.00;;;;;;5106348;28;20474;-69
2023/02/24 09:55:17;;;;;;;6.37;4.00;;;11.30;99.90;;;;;;5107302;28;20476;-68
2023/02/24 10:00:42;;;;;;;5.27;4.03;;;11.30;99.90;;;;;;5103428;28;21274;-72
2023/02/24 10:03:19;;;;;;;6.70;5.17;;;11.40;99.90;;;;;;5104288;28;20440;-70
2023/02/24 10:05:57;;;;;;;7.43;4.13;;;11.40;99.90;;;;;;5104920;28;20875;-70
2023/02/24 10:08:33;;;;;;;8.63;4.70;;;11.70;1.00;;;;;;5099106;28;20493;-70
2023/02/24 10:11:05;;;;;;;6.57;4.57;;;11.70;99.90;;;;;;5105513;28;20463;-70
2023/02/24 10:13:37;;;;;;;8.87;4.07;;;11.70;99.90;;;;;;5108382;28;20903;-70
2023/02/24 10:16:07;;;;;;;11.23;4.17;;;11.50;1.00;;;;;;5106253;28;20957;-71
2023/02/24 10:18:42;;;;;;;9.00;3.90;;;11.40;1.00;;;;;;5105630;28;20446;-70
2023/02/24 10:21:29;;;;;;;9.20;4.03;;;11.40;1.00;;;;;;5099596;28;20482;-71
2023/02/24 10:24:06;;;;;;;7.60;2.63;;;11.30;1.00;;;;;;5105198;28;20450;-70
2023/02/24 10:26:43;;;;;;;5.83;3.23;;;11.40;99.90;;;;;;5094307;28;20448;-71
2023/02/24 10:29:26;;;;;;;12.43;6.37;;;11.50;99.90;;;;;;5103606;28;20435;-71
2023/02/24 10:32:05;;;;;;;11.87;5.50;;;11.50;99.90;;;;;;5107307;28;20532;-71
2023/02/24 10:34:32;;;;;;;10.07;6.60;;;11.40;1.00;;;;;;5105322;28;20443;-70
2023/02/24 10:37:05;;;;;;;8.53;6.10;;;11.40;80.90;;;;;;5106401;28;20437;-71
2023/02/24 10:39:32;;;;;;;12.27;5.50;;;11.40;1.00;;;;;;5094622;28;20452;-71
2023/02/24 10:42:14;;;;;;;13.27;6.47;;;11.30;95.60;;;;;;5106509;28;20467;-71
2023/02/24 10:44:50;;;;;;;11.30;6.80;;;11.20;99.90;;;;;;5100619;28;20468;-71
2023/02/24 10:47:19;;;;;;;11.53;6.10;;;11.20;99.90;;;;;;5101652;28;20450;-72
2023/02/24 10:49:56;;;;;;;10.70;6.80;;;11.10;99.90;;;;;;5098349;28;20438;-71
2023/02/24 10:53:09;;;;;;;23.73;5.30;;;11.00;99.90;;;;;;5097165;28;20443;-71
2023/02/24 10:55:52;;;;;;;11.27;6.00;;;11.30;1.00;;;;;;5085260;28;20432;-71
2023/02/24 10:58:43;;;;;;;9.83;5.33;;;11.40;1.00;;;;;;5081964;28;20776;-73
2023/02/24 11:01:19;;;;;;;12.70;6.00;;;11.30;1.00;;;;;;5089415;28;20567;-71
2023/02/24 11:04:21;;;;;;;9.97;6.10;;;11.40;1.00;;;;;;5078498;28;20441;-71
2023/02/24 11:06:56;;;;;;;14.73;6.63;;;11.40;99.90;;;;;;5087947;28;20795;-72
2023/02/24 11:09:34;;;;;;;22.43;7.70;;;11.40;1.00;;;;;;5084199;28;20473;-71
2023/02/24 11:17:50;;;;;;;23.60;9.00;;;11.20;99.90;;;;;;5088751;28;20445;-72
2023/02/24 11:20:26;;;;;;;22.13;9.63;;;11.30;99.90;;;;;;5082475;28;20453;-71
2023/02/24 11:22:56;;;;;;;13.90;7.70;;;11.30;99.90;;;;;;5091882;28;20451;-71
2023/02/24 11:25:25;;;;;;;21.03;9.60;;;11.20;99.90;;;;;;5091481;28;20452;-71
2023/02/24 11:27:54;;;;;;;18.60;8.67;;;11.30;99.90;;;;;;5089827;28;20823;-71
2023/02/24 11:30:31;;;;;;;16.93;9.03;;;11.40;99.90;;;;;;5090956;28;20454;-71
2023/02/24 11:33:15;;;;;;;20.13;10.17;;;11.40;99.90;;;;;;5077690;28;20523;-71
2023/02/24 11:35:50;;;;;;;19.83;8.50;;;11.40;1.00;;;;;;5088900;28;20903;-71
2023/02/24 11:38:29;;;;;;;17.20;9.03;;;11.40;1.00;;;;;;5090507;28;20444;-71
2023/02/24 11:41:04;;;;;;;13.50;7.07;;;11.40;1.00;;;;;;5081611;28;20488;-72
2023/02/24 11:43:34;;;;;;;14.17;7.00;;;11.40;1.00;;;;;;5077491;28;20994;-71
2023/02/24 11:46:08;;;;;;;15.17;7.60;;;11.40;99.90;;;;;;5080852;28;20444;-72
2023/02/24 11:48:39;;;;;;;13.80;7.33;;;11.20;99.90;;;;;;5077629;28;20444;-71
2023/02/24 11:51:10;;;;;;;15.73;7.37;;;11.30;99.90;;;;;;5077663;28;20450;-72
2023/02/24 11:53:42;;;;;;;12.10;7.37;;;11.30;1.00;;;;;;5085723;28;20978;-72
2023/02/24 11:56:15;;;;;;;17.57;7.10;;;11.30;1.00;;;;;;5080856;28;20432;-72
2023/02/24 11:58:47;;;;;;;11.47;5.50;;;11.40;1.00;;;;;;5084208;28;20469;-72
2023/02/24 12:01:20;;;;;;;12.33;6.73;;;11.50;99.90;;;;;;5079857;28;20471;-71
2023/02/24 12:03:55;;;;;;;9.63;6.10;;;11.60;99.90;;;;;;5088577;28;20425;-71
2023/02/24 12:06:26;;;;;;;12.30;6.20;;;11.40;99.90;;;;;;5089085;28;20827;-71
2023/02/24 12:08:58;;;;;;;9.53;6.00;;;11.40;1.00;;;;;;5088335;28;20441;-72
2023/02/24 12:11:37;;;;;;;11.93;5.47;;;11.40;1.00;;;;;;5089456;28;20863;-72
2023/02/24 12:14:15;;;;;;;12.43;5.90;;;11.60;1.00;;;;;;5088665;28;20444;-72
2023/02/24 12:16:46;;;;;;;9.37;6.17;;;11.90;1.00;;;;;;5080854;28;20526;-72
2023/02/24 12:19:22;;;;;;;11.87;6.53;;;11.90;99.90;;;;;;5089282;28;20437;-71
2023/02/24 12:21:53;;;;;;;13.23;6.67;;;12.20;99.90;;;;;;5091395;28;20471;-71
2023/02/24 12:24:21;;;;;;;19.73;7.40;;;12.30;1.00;;;;;;5089858;28;20528;-71
2023/02/24 12:26:58;;;;;;;8.63;5.87;;;12.30;99.90;;;;;;5088447;28;20444;-71
2023/02/24 12:29:41;;;;;;;9.80;5.00;;;12.20;31.60;;;;;;5089152;28;20436;-71
2023/02/24 12:32:20;;;;;;;10.57;5.17;;;12.10;28.00;;;;;;5089185;28;20445;-71
2023/02/24 12:34:56;;;;;;;11.03;4.37;;;12.10;1.00;;;;;;5089061;28;20440;-71
2023/02/24 12:37:35;;;;;;;7.30;4.40;;;12.10;1.00;;;;;;5086863;28;20425;-69
2023/02/24 12:40:15;;;;;;;9.30;4.43;;;12.10;1.00;;;;;;5098817;28;20909;-71
2023/02/24 12:42:47;;;;;;;6.70;4.20;;;12.30;1.00;;;;;;5077658;28;20439;-71
2023/02/24 12:45:18;;;;;;;6.03;3.90;;;12.50;1.00;;;;;;5088166;28;20441;-72
2023/02/24 12:47:55;;;;;;;6.37;4.47;;;12.30;1.00;;;;;;5086866;28;20840;-72
2023/02/24 12:50:37;;;;;;;17.03;4.00;;;12.30;1.00;;;;;;5087462;28;20845;-72
2023/02/24 12:53:13;;;;;;;5.87;4.40;;;12.30;1.00;;;;;;5079364;28;20442;-69
2023/02/24 12:55:47;;;;;;;9.33;4.33;;;12.50;1.00;;;;;;5092767;28;20451;-70
2023/02/24 12:58:17;;;;;;;10.93;3.97;;;;;;;;;;5093397;28;20437;-70
2023/02/24 13:00:51;;;;;;;5.80;3.33;;;;;;;;;;5088742;28;20468;-69
2023/02/24 13:03:24;;;;;;;6.20;4.00;;;;;;;;;;5089286;28;20440;-69
2023/02/24 13:05:58;;;;;;;7.87;2.90;;;;;;;;;;5088343;28;20436;-69
2023/02/24 13:08:31;;;;;;;3.90;3.33;;;;;;;;;;5099612;28;20443;-70
2023/02/24 13:11:03;;;;;;;8.63;3.40;;;;;;;;;;5088507;28;20463;-69
2023/02/24 13:13:35;;;;;;;5.13;2.07;;;;;;;;;;5076916;28;20435;-69
2023/02/24 13:16:02;;;;;;;10.77;3.70;;;;;;;;;;5085929;28;20443;-70
2023/02/24 13:18:30;;;;;;;4.60;3.37;;;;;;;;;;5073833;28;20497;-70
2023/02/24 13:21:10;;;;;;;9.40;3.50;;;;;;;;;;5083382;28;20586;-70
2023/02/24 13:23:37;;;;;;;10.00;3.37;;;;;;;;;;5083094;28;20436;-68
2023/02/24 13:26:05;;;;;;;10.70;5.13;;;;;;;;;;5079876;28;20456;-71
2023/02/24 13:28:34;;;;;;;4.67;3.50;;;;;;;;;;5071798;28;20437;-71
2023/02/24 13:31:02;;;;;;;7.23;2.80;;;;;;;;;;5082448;28;20821;-70
2023/02/24 13:33:30;;;;;;;10.30;3.60;;;;;;;;;;5075667;28;20445;-70
2023/02/24 13:36:16;;;;;;;8.23;4.77;;;;;;;;;;5086577;28;20919;-70
2023/02/24 13:38:44;;;;;;;8.33;4.40;;;;;;;;;;5078276;28;20446;-67
2023/02/24 13:41:35;;;;;;;8.93;3.47;;;;;;;;;;5088178;28;20492;-69
2023/02/24 13:44:03;;;;;;;8.47;3.47;;;;;;;;;;5081472;28;20767;-68
2023/02/24 13:46:36;;;;;;;7.80;4.13;;;;;;;;;;5083929;28;20448;-68
2023/02/24 13:49:05;;;;;;;7.40;3.97;;;;;;;;;;5087181;28;20433;-68
2023/02/24 13:51:47;;;;;;;8.23;3.50;;;;;;;;;;5083280;28;20468;-70
2023/02/24 13:54:23;;;;;;;6.60;3.07;;;;;;;;;;5075012;28;20449;-70
2023/02/24 13:56:54;;;;;;;7.40;3.10;;;;;;;;;;5083707;28;20815;-68
2023/02/24 13:59:36;;;;;;;13.07;3.00;;;;;;;;;;5080571;28;20807;-70
2023/02/24 14:02:04;;;;;;;5.47;3.03;;;;;;;;;;5070913;28;20468;-69
2023/02/24 14:04:32;;;;;;;7.50;4.87;;;;;;;;;;5075469;28;20445;-68
2023/02/24 14:07:02;;;;;;;8.50;3.00;;;;;;;;;;5084312;28;20455;-68
2023/02/24 14:09:33;;;;;;;4.20;3.03;;;;;;;;;;5080272;28;20460;-68
2023/02/24 14:12:01;;;;;;;11.63;4.00;;;;;;;;;;5084240;28;20998;-68
2023/02/24 14:14:28;;;;;;;5.30;3.10;;;;;;;;;;5085371;28;20472;-68
2023/02/24 14:16:56;;;;;;;3.33;2.70;;;;;;;;;;5086654;28;20499;-68
2023/02/24 14:19:25;;;;;;;9.37;3.33;;;;;;;;;;5080051;28;20832;-68
2023/02/24 14:21:53;;;;;;;5.03;3.17;;;;;;;;;;5089587;28;20480;-67
2023/02/24 14:24:21;;;;;;;8.60;4.50;;;;;;;;;;5090267;28;20448;-68
2023/02/24 14:26:51;;;;;;;17.93;5.20;;;;;;;;;;5090699;28;20452;-68
2023/02/24 14:29:19;;;;;;;8.40;5.00;;;;;;;;;;5094220;28;20451;-68
2023/02/24 14:31:50;;;;;;;17.33;5.07;;;;;;;;;;5093632;28;20448;-67
2023/02/24 14:34:19;;;;;;;9.50;5.47;;;;;;;;;;5094220;28;20455;-68
2023/02/24 14:36:46;;;;;;;9.23;4.90;;;;;;;;;;5092793;28;20456;-67
2023/02/24 14:39:16;;;;;;;13.53;5.93;;;;;;;;;;5093729;28;20444;-67
2023/02/24 14:41:43;;;;;;;8.37;4.70;;;;;;;;;;5093256;28;20475;-67